Back to top

Jackson, WY weather

Jackson Hole Airport (AWOS), Jackson, WY: 7/22/2019 13:56
Visibility10 statute milesclear sky
View 7-Day Forecast
Area Summary
Sky/CloudsSky Clear
Weather [last 24 hours]None
Pressure30.3 in.Hg (1026 hPa)
Dew Point46.9 °F (8.3 °C)
Relative Humidity27.5 %
Reading TimePrecipitation
24-hr ending 7/22@05:56Indeterminate
Temperature84 °F (28.9 °C)red thermometer
Reading TimeMinimum to Maximum Temperature
6-hr ending 7/22@11:5653.1 °F to 78.1 °F (11.7 °C to 25.6 °C)
6-hr ending 7/22@05:5653.1 °F to 66 °F (11.7 °C to 18.9 °C)
6-hr ending 7/21@23:5657.9 °F to 82.9 °F (14.4 °C to 28.3 °C)
6-hr ending 7/21@17:5671.1 °F to 84.9 °F (21.7 °C to 29.4 °C)
24-hr ending 7/21@23:5639.9 °F to 84.9 °F (4.4 °C to 29.4 °C)
Wind9.21 MPH (8 KT) green arrow pointing 270 degrees
Wind FromWest (260 Degrees)
Twilight Begins05:27Sunshine Yesterday
Sunrise06:01N/A
Sunset20:57
Twilight Ends21:31
RemarksLTG, DSNT, W
METARKJAC 221956Z 26008KT 10SM CLR 29/08 A3030 RMK AO2 LTG DSNT W SLP180 T02890083
Tags: